Time;durP1;ratioP1;P1;durP2;ratioP2;P2;SDS_P1;SDS_P2;PMS_P1;PMS_P2;Temp;Humidity;BMP_temperature;BMP_pressure;BME280_temperature;BME280_humidity;BME280_pressure;Samples;Min_cycle;Max_cycle;Signal;HPM_P1;HPM_P2
2021/03/11 00:01:30;;;;;;;18.23;7.07;;;;;;;;;;5024618;28;20039;-62
2021/03/11 00:03:56;;;;;;;14.68;6.22;;;;;;;;;;5021809;28;20045;-62
2021/03/11 00:06:22;;;;;;;19.20;7.45;;;;;;;;;;5006960;28;20033;-64
2021/03/11 00:08:48;;;;;;;22.20;8.32;;;;;;;;;;5001884;28;20133;-67
2021/03/11 00:11:14;;;;;;;13.20;5.22;;;;;;;;;;5023065;28;20042;-67
2021/03/11 00:13:40;;;;;;;23.23;7.13;;;;;;;;;;5002147;28;20041;-67
2021/03/11 00:16:06;;;;;;;21.38;6.15;;;;;;;;;;5006055;28;20033;-66
2021/03/11 00:18:34;;;;;;;22.58;8.45;;;;;;;;;;5003610;28;20045;-65
2021/03/11 00:21:00;;;;;;;18.20;7.28;;;;;;;;;;5020038;28;20042;-62
2021/03/11 00:23:26;;;;;;;25.08;7.82;;;;;;;;;;5004507;28;20038;-66
2021/03/11 00:25:52;;;;;;;18.85;7.07;;;;;;;;;;5001433;28;20049;-65
2021/03/11 00:28:18;;;;;;;18.58;6.25;;;;;;;;;;5005400;28;20058;-64
2021/03/11 00:30:45;;;;;;;18.63;7.10;;;;;;;;;;5000194;28;20139;-62
2021/03/11 00:33:11;;;;;;;15.73;5.50;;;;;;;;;;5006122;28;20040;-64
2021/03/11 00:35:37;;;;;;;14.63;6.28;;;;;;;;;;4992320;28;20078;-65
2021/03/11 00:38:04;;;;;;;21.95;7.10;;;;;;;;;;4983359;28;20042;-64
2021/03/11 00:40:29;;;;;;;15.38;5.85;;;;;;;;;;4985563;28;20042;-65
2021/03/11 00:42:55;;;;;;;17.00;6.03;;;;;;;;;;4981223;28;20116;-65
2021/03/11 00:45:21;;;;;;;15.20;5.00;;;;;;;;;;4986471;28;20039;-65
2021/03/11 00:47:47;;;;;;;14.48;6.63;;;;;;;;;;4979122;28;20284;-62
2021/03/11 00:50:14;;;;;;;15.18;5.90;;;;;;;;;;4957330;28;20050;-64
2021/03/11 00:52:41;;;;;;;6.32;2.22;;;;;;;;;;4961591;28;20026;-65
2021/03/11 00:55:08;;;;;;;19.13;7.00;;;;;;;;;;4964054;28;20046;-62
2021/03/11 00:57:34;;;;;;;13.98;5.95;;;;;;;;;;4970752;28;20049;-62
2021/03/11 01:00:00;;;;;;;18.23;7.35;;;;;;;;;;4986628;28;20049;-65
2021/03/11 01:02:26;;;;;;;14.65;5.55;;;;;;;;;;4969383;28;20047;-62
2021/03/11 01:04:52;;;;;;;17.15;5.70;;;;;;;;;;4985699;28;20116;-60
2021/03/11 01:07:18;;;;;;;17.50;6.57;;;;;;;;;;4982899;28;20060;-63
2021/03/11 01:09:45;;;;;;;12.77;5.60;;;;;;;;;;4983785;28;20039;-61
2021/03/11 01:12:12;;;;;;;9.32;3.83;;;;;;;;;;4966577;28;20038;-64
2021/03/11 01:14:38;;;;;;;12.88;4.88;;;;;;;;;;4962629;28;20100;-61
2021/03/11 01:17:04;;;;;;;12.63;4.97;;;;;;;;;;4983486;28;20046;-61
2021/03/11 01:19:30;;;;;;;12.02;5.68;;;;;;;;;;4977909;28;20069;-65
2021/03/11 01:21:56;;;;;;;16.95;6.55;;;;;;;;;;4983961;28;20107;-61
2021/03/11 01:24:22;;;;;;;15.68;5.38;;;;;;;;;;4971028;28;20074;-64
2021/03/11 01:26:49;;;;;;;14.57;5.45;;;;;;;;;;4965893;28;20110;-65
2021/03/11 01:29:16;;;;;;;14.98;6.15;;;;;;;;;;4973205;28;20046;-64
2021/03/11 01:31:42;;;;;;;17.52;5.95;;;;;;;;;;4986753;28;20038;-64
2021/03/11 01:34:07;;;;;;;13.93;6.05;;;;;;;;;;4983275;28;20066;-64
2021/03/11 01:36:33;;;;;;;15.45;6.38;;;;;;;;;;4989029;28;20054;-64
2021/03/11 01:39:00;;;;;;;10.98;4.88;;;;;;;;;;4985668;28;20038;-63
2021/03/11 01:41:26;;;;;;;17.02;5.65;;;;;;;;;;4988093;28;20053;-62
2021/03/11 01:43:54;;;;;;;14.48;5.70;;;;;;;;;;4985323;28;20038;-61
2021/03/11 01:46:21;;;;;;;13.90;6.22;;;;;;;;;;4987064;28;20038;-61
2021/03/11 01:48:48;;;;;;;10.73;4.97;;;;;;;;;;4988518;28;20038;-62
2021/03/11 01:51:14;;;;;;;11.07;4.95;;;;;;;;;;4981491;28;20129;-65
2021/03/11 01:53:40;;;;;;;17.83;6.53;;;;;;;;;;4986262;28;20050;-66
2021/03/11 01:56:06;;;;;;;13.68;5.53;;;;;;;;;;4980004;28;20051;-65
2021/03/11 01:58:33;;;;;;;15.52;6.40;;;;;;;;;;4983802;28;20053;-65
2021/03/11 02:00:59;;;;;;;14.15;6.97;;;;;;;;;;4981080;28;20042;-63
2021/03/11 02:03:25;;;;;;;13.85;5.93;;;;;;;;;;4984951;28;20049;-62
2021/03/11 02:05:51;;;;;;;17.98;5.63;;;;;;;;;;4982785;28;20046;-64
2021/03/11 02:08:18;;;;;;;14.10;6.13;;;;;;;;;;4984716;28;20136;-63
2021/03/11 02:10:44;;;;;;;12.48;5.13;;;;;;;;;;4979641;28;20043;-61
2021/03/11 02:13:16;;;;;;;14.60;5.40;;;;;;;;;;4985506;28;20046;-60
2021/03/11 02:15:44;;;;;;;11.35;5.00;;;;;;;;;;4980289;28;20117;-62
2021/03/11 02:18:14;;;;;;;12.88;6.07;;;;;;;;;;4986400;28;20121;-64
2021/03/11 02:20:47;;;;;;;12.63;5.43;;;;;;;;;;4982773;28;20100;-63
2021/03/11 02:23:30;;;;;;;12.07;4.55;;;;;;;;;;4981503;28;20050;-63
2021/03/11 02:26:02;;;;;;;12.68;5.18;;;;;;;;;;4980022;28;20195;-62
2021/03/11 02:28:32;;;;;;;9.60;4.03;;;;;;;;;;4986641;28;20043;-60
2021/03/11 02:30:59;;;;;;;11.10;5.45;;;;;;;;;;4977620;28;20039;-61
2021/03/11 02:33:26;;;;;;;13.18;5.20;;;;;;;;;;4963580;28;20035;-60
2021/03/11 02:35:52;;;;;;;11.45;5.13;;;;;;;;;;4963005;28;20039;-61
2021/03/11 02:38:20;;;;;;;11.13;4.95;;;;;;;;;;4964417;28;20035;-60
2021/03/11 02:40:47;;;;;;;8.75;3.58;;;;;;;;;;4964920;28;20039;-62
2021/03/11 02:43:13;;;;;;;11.95;4.88;;;;;;;;;;4970967;28;20047;-64
2021/03/11 02:45:40;;;;;;;7.55;2.70;;;;;;;;;;4963790;28;20066;-59
2021/03/11 02:48:11;;;;;;;8.55;3.83;;;;;;;;;;4962332;28;20050;-62
2021/03/11 02:50:38;;;;;;;10.32;3.10;;;;;;;;;;4964468;28;20035;-65
2021/03/11 02:53:07;;;;;;;9.65;3.95;;;;;;;;;;4975925;28;20035;-60
2021/03/11 02:55:33;;;;;;;7.07;3.03;;;;;;;;;;4984723;28;20038;-61
2021/03/11 02:58:01;;;;;;;8.93;3.30;;;;;;;;;;4981325;28;20100;-65
2021/03/11 03:00:28;;;;;;;9.93;3.85;;;;;;;;;;4985667;28;20030;-63
2021/03/11 03:02:55;;;;;;;7.65;3.60;;;;;;;;;;4982102;28;20047;-63
2021/03/11 03:05:23;;;;;;;11.68;3.45;;;;;;;;;;4985670;28;20046;-62
2021/03/11 03:07:50;;;;;;;9.02;4.30;;;;;;;;;;4980223;28;20383;-64
2021/03/11 03:10:17;;;;;;;8.82;3.58;;;;;;;;;;4983938;28;20054;-63
2021/03/11 03:12:43;;;;;;;11.30;3.97;;;;;;;;;;4980165;28;20035;-63
2021/03/11 03:15:09;;;;;;;9.85;3.70;;;;;;;;;;4983307;28;20039;-64
2021/03/11 03:17:36;;;;;;;8.68;4.07;;;;;;;;;;4979133;28;20042;-62
2021/03/11 03:20:03;;;;;;;9.35;4.03;;;;;;;;;;4963672;28;20110;-66
2021/03/11 03:22:31;;;;;;;9.32;4.05;;;;;;;;;;4962734;28;20047;-65
2021/03/11 03:24:57;;;;;;;11.05;3.90;;;;;;;;;;4962748;28;20047;-66
2021/03/11 03:27:23;;;;;;;8.98;3.58;;;;;;;;;;4963509;28;20054;-66
2021/03/11 03:29:49;;;;;;;8.38;3.75;;;;;;;;;;4978037;28;20054;-66
2021/03/11 03:32:15;;;;;;;9.82;3.53;;;;;;;;;;4983647;28;20229;-65
2021/03/11 03:34:41;;;;;;;10.18;3.88;;;;;;;;;;4966812;28;20039;-66
2021/03/11 03:37:07;;;;;;;9.25;4.05;;;;;;;;;;4964252;28;20047;-62
2021/03/11 03:39:34;;;;;;;9.82;4.07;;;;;;;;;;4960259;28;20042;-67
2021/03/11 03:42:01;;;;;;;8.55;3.45;;;;;;;;;;4969018;28;20112;-66
2021/03/11 03:44:32;;;;;;;8.38;3.53;;;;;;;;;;4964215;28;20031;-66
2021/03/11 03:46:59;;;;;;;9.50;4.25;;;;;;;;;;4964054;28;20031;-65
2021/03/11 03:49:25;;;;;;;12.25;3.78;;;;;;;;;;4970401;28;20042;-66
2021/03/11 03:51:53;;;;;;;10.55;3.53;;;;;;;;;;4985474;28;20054;-66
2021/03/11 03:54:22;;;;;;;9.52;4.03;;;;;;;;;;4981244;28;20034;-64
2021/03/11 03:56:51;;;;;;;9.32;4.35;;;;;;;;;;4986473;28;20038;-66
2021/03/11 03:59:18;;;;;;;7.60;3.20;;;;;;;;;;4983269;28;20039;-67
2021/03/11 04:01:45;;;;;;;12.10;4.95;;;;;;;;;;4986712;28;20149;-64
2021/03/11 04:04:11;;;;;;;8.73;3.92;;;;;;;;;;4999189;28;20062;-65
2021/03/11 04:06:38;;;;;;;9.15;4.43;;;;;;;;;;4983261;28;20046;-64
2021/03/11 04:09:07;;;;;;;8.95;3.72;;;;;;;;;;4973293;28;20077;-65
2021/03/11 04:11:33;;;;;;;9.80;4.18;;;;;;;;;;4965348;28;20049;-67
2021/03/11 04:14:01;;;;;;;11.30;4.25;;;;;;;;;;4984802;28;20082;-63
2021/03/11 04:16:28;;;;;;;9.47;4.73;;;;;;;;;;4962310;28;20053;-65
2021/03/11 04:18:55;;;;;;;10.88;4.38;;;;;;;;;;4967974;28;20042;-64
2021/03/11 04:21:22;;;;;;;10.45;4.13;;;;;;;;;;4963657;28;20034;-65
2021/03/11 04:23:48;;;;;;;9.73;3.83;;;;;;;;;;4968343;28;20023;-67
2021/03/11 04:26:14;;;;;;;10.90;4.60;;;;;;;;;;4974774;28;20108;-65
2021/03/11 04:28:41;;;;;;;10.63;5.15;;;;;;;;;;4985323;28;20062;-68
2021/03/11 04:31:08;;;;;;;10.55;4.95;;;;;;;;;;4978642;28;20038;-66
2021/03/11 04:33:34;;;;;;;11.80;4.20;;;;;;;;;;4985556;28;20059;-66
2021/03/11 04:36:01;;;;;;;7.82;3.50;;;;;;;;;;4969720;28;20038;-66
2021/03/11 04:38:27;;;;;;;15.90;5.82;;;;;;;;;;4985830;28;20042;-68
2021/03/11 04:40:54;;;;;;;9.93;4.10;;;;;;;;;;5000701;28;20132;-67
2021/03/11 04:43:20;;;;;;;9.00;3.72;;;;;;;;;;4988770;28;20034;-68
2021/03/11 04:45:47;;;;;;;12.15;4.95;;;;;;;;;;4999427;28;20046;-67
2021/03/11 04:48:14;;;;;;;10.98;4.93;;;;;;;;;;5003168;28;20038;-66
2021/03/11 04:50:41;;;;;;;10.35;5.03;;;;;;;;;;5021207;28;20052;-65
2021/03/11 04:53:07;;;;;;;12.38;4.82;;;;;;;;;;4981816;28;20050;-66
2021/03/11 04:55:34;;;;;;;11.70;5.63;;;;;;;;;;4984359;28;20049;-67
2021/03/11 04:58:00;;;;;;;11.32;4.55;;;;;;;;;;4980707;28;20102;-66
2021/03/11 05:00:27;;;;;;;11.57;4.95;;;;;;;;;;4984074;28;20046;-67
2021/03/11 05:02:54;;;;;;;16.33;6.00;;;;;;;;;;4980612;28;20038;-65
2021/03/11 05:05:25;;;;;;;10.00;4.00;;;;;;;;;;4975303;28;20042;-66
2021/03/11 05:07:51;;;;;;;12.00;4.78;;;;;;;;;;4998088;28;20046;-67
2021/03/11 05:10:17;;;;;;;10.02;4.25;;;;;;;;;;4985326;28;20054;-67
2021/03/11 05:12:45;;;;;;;13.85;5.03;;;;;;;;;;4993178;28;20085;-67
2021/03/11 05:15:14;;;;;;;14.43;5.13;;;;;;;;;;5016342;28;20033;-65
2021/03/11 05:17:40;;;;;;;12.05;4.63;;;;;;;;;;4998310;28;20034;-62
2021/03/11 05:20:06;;;;;;;11.85;4.70;;;;;;;;;;4988299;28;20053;-65
2021/03/11 05:22:33;;;;;;;14.20;5.25;;;;;;;;;;4984823;28;20042;-66
2021/03/11 05:24:59;;;;;;;10.52;5.18;;;;;;;;;;4988420;28;20116;-63
2021/03/11 05:27:26;;;;;;;11.65;5.25;;;;;;;;;;4986797;28;20062;-63
2021/03/11 05:29:51;;;;;;;12.15;4.93;;;;;;;;;;4989011;28;20038;-65
2021/03/11 05:32:17;;;;;;;8.25;3.70;;;;;;;;;;4988416;28;20049;-64
2021/03/11 05:34:44;;;;;;;12.90;5.55;;;;;;;;;;4983526;28;20140;-66
2021/03/11 05:37:10;;;;;;;16.02;5.55;;;;;;;;;;5005312;28;20038;-66
2021/03/11 05:39:38;;;;;;;16.63;5.85;;;;;;;;;;5002757;28;20049;-65
2021/03/11 05:42:05;;;;;;;13.93;4.55;;;;;;;;;;4986947;28;20038;-66
2021/03/11 05:44:31;;;;;;;10.98;4.57;;;;;;;;;;4985578;28;20046;-67
2021/03/11 05:46:58;;;;;;;10.77;4.50;;;;;;;;;;4988071;28;20050;-67
2021/03/11 05:49:25;;;;;;;16.63;6.15;;;;;;;;;;4985515;28;20038;-66
2021/03/11 05:51:51;;;;;;;10.73;4.88;;;;;;;;;;5005313;28;20066;-66
2021/03/11 05:54:17;;;;;;;9.00;4.45;;;;;;;;;;4984979;28;20074;-65
2021/03/11 05:56:44;;;;;;;9.88;3.78;;;;;;;;;;4989198;28;20062;-66
2021/03/11 05:59:11;;;;;;;12.73;4.20;;;;;;;;;;5007971;28;20039;-66
2021/03/11 06:01:37;;;;;;;11.50;4.63;;;;;;;;;;5009998;28;20049;-66
2021/03/11 06:04:03;;;;;;;9.27;4.20;;;;;;;;;;5003530;28;20068;-66
2021/03/11 06:06:31;;;;;;;10.57;5.00;;;;;;;;;;4986443;28;20046;-66
2021/03/11 06:08:58;;;;;;;15.05;5.38;;;;;;;;;;4986949;28;20038;-65
2021/03/11 06:11:24;;;;;;;12.93;6.07;;;;;;;;;;5001523;28;20039;-67
2021/03/11 06:13:52;;;;;;;7.95;3.60;;;;;;;;;;4987770;28;20046;-63
2021/03/11 06:16:20;;;;;;;14.40;4.40;;;;;;;;;;4991372;28;20049;-66
2021/03/11 06:18:49;;;;;;;14.30;4.10;;;;;;;;;;5002765;28;20050;-67
2021/03/11 06:21:15;;;;;;;11.20;5.03;;;;;;;;;;5001355;28;20052;-64
2021/03/11 06:23:41;;;;;;;10.55;4.47;;;;;;;;;;5003046;28;20034;-67
2021/03/11 06:26:07;;;;;;;9.85;3.67;;;;;;;;;;5001559;28;20057;-67
2021/03/11 06:28:54;;;;;;;6.95;3.35;;;;;;;;;;5003595;28;20074;-65
2021/03/11 06:31:20;;;;;;;8.27;3.65;;;;;;;;;;5000965;28;20045;-64
2021/03/11 06:33:48;;;;;;;7.90;3.50;;;;;;;;;;5021284;28;20068;-65
2021/03/11 06:36:14;;;;;;;10.98;3.80;;;;;;;;;;5000216;28;20058;-66
2021/03/11 06:38:40;;;;;;;13.38;4.32;;;;;;;;;;5005468;28;20046;-64
2021/03/11 06:41:07;;;;;;;8.25;3.58;;;;;;;;;;4982904;28;20045;-65
2021/03/11 06:43:32;;;;;;;11.20;4.43;;;;;;;;;;5005996;28;20033;-64
2021/03/11 06:46:06;;;;;;;9.57;3.78;;;;;;;;;;5001574;28;20034;-67
2021/03/11 06:48:32;;;;;;;11.25;4.20;;;;;;;;;;5006019;28;20041;-64
2021/03/11 06:50:59;;;;;;;9.57;4.10;;;;;;;;;;4998877;28;20037;-66
2021/03/11 06:53:25;;;;;;;13.18;3.97;;;;;;;;;;5000174;28;20042;-63
2021/03/11 06:55:51;;;;;;;8.70;3.38;;;;;;;;;;5000872;28;20042;-65
2021/03/11 06:58:19;;;;;;;9.07;3.55;;;;;;;;;;5000840;28;20053;-63
2021/03/11 07:00:45;;;;;;;7.95;3.20;;;;;;;;;;5002195;28;20051;-67
2021/03/11 07:03:14;;;;;;;9.80;2.70;;;;;;;;;;4998941;28;20052;-66
2021/03/11 07:05:41;;;;;;;7.68;2.50;;;;;;;;;;4999824;28;20042;-67
2021/03/11 07:08:08;;;;;;;7.38;2.80;;;;;;;;;;4999818;28;20046;-66
2021/03/11 07:10:35;;;;;;;5.50;2.28;;;;;;;;;;5001338;28;20046;-68
2021/03/11 07:13:01;;;;;;;10.75;2.95;;;;;;;;;;4995074;28;20042;-68
2021/03/11 07:15:29;;;;;;;9.30;2.83;;;;;;;;;;5002175;28;20052;-66
2021/03/11 07:17:56;;;;;;;12.73;2.90;;;;;;;;;;5010146;28;20038;-67
2021/03/11 07:20:23;;;;;;;8.57;2.70;;;;;;;;;;5024472;28;20058;-67
2021/03/11 07:23:00;;;;;;;12.80;2.13;;;;;;;;;;5019283;28;20038;-66
2021/03/11 07:25:27;;;;;;;6.97;2.08;;;;;;;;;;5021774;28;20127;-66
2021/03/11 07:27:54;;;;;;;15.75;4.57;;;;;;;;;;5010654;28;20092;-66
2021/03/11 07:30:22;;;;;;;15.40;2.38;;;;;;;;;;5003564;28;20165;-67
2021/03/11 07:32:48;;;;;;;18.75;2.15;;;;;;;;;;5002332;28;20027;-67
2021/03/11 07:35:17;;;;;;;7.78;2.17;;;;;;;;;;5004576;28;20030;-66
2021/03/11 07:37:49;;;;;;;13.10;2.47;;;;;;;;;;5001012;28;20798;-63
2021/03/11 07:40:16;;;;;;;16.83;2.72;;;;;;;;;;5021919;28;20049;-67
2021/03/11 07:42:42;;;;;;;6.25;1.20;;;;;;;;;;5017742;28;20049;-64
2021/03/11 07:45:10;;;;;;;12.05;2.05;;;;;;;;;;5022445;28;20049;-67
2021/03/11 07:47:39;;;;;;;17.13;1.98;;;;;;;;;;5024262;28;20041;-66
2021/03/11 07:50:07;;;;;;;15.07;2.28;;;;;;;;;;5026838;28;20029;-67
2021/03/11 07:52:33;;;;;;;7.88;1.77;;;;;;;;;;5043972;28;20037;-66
2021/03/11 07:55:02;;;;;;;13.73;2.22;;;;;;;;;;5005117;28;20081;-65
2021/03/11 07:57:31;;;;;;;18.67;2.08;;;;;;;;;;5004405;28;20041;-67
2021/03/11 07:59:57;;;;;;;15.45;1.88;;;;;;;;;;5020026;28;20049;-62
2021/03/11 08:02:23;;;;;;;10.18;1.60;;;;;;;;;;5005269;28;20038;-63
2021/03/11 08:04:49;;;;;;;13.20;1.60;;;;;;;;;;5002350;28;20460;-64
2021/03/11 08:07:17;;;;;;;10.48;1.92;;;;;;;;;;5006062;28;20037;-61
2021/03/11 08:09:44;;;;;;;7.87;1.10;;;;;;;;;;5009624;28;20042;-64
2021/03/11 08:12:27;;;;;;;11.32;1.65;;;;;;;;;;5024626;28;20266;-63
2021/03/11 08:14:53;;;;;;;11.13;1.73;;;;;;;;;;4990507;28;20037;-65
2021/03/11 08:17:39;;;;;;;13.38;1.60;;;;;;;;;;4996154;28;20130;-62
2021/03/11 08:20:05;;;;;;;17.60;1.65;;;;;;;;;;4998628;28;20050;-64
2021/03/11 08:22:50;;;;;;;19.30;2.17;;;;;;;;;;4986104;28;20042;-63
2021/03/11 08:25:31;;;;;;;16.77;1.40;;;;;;;;;;4998794;28;20115;-64
2021/03/11 08:27:59;;;;;;;9.90;1.45;;;;;;;;;;5024195;28;20037;-63
2021/03/11 08:30:49;;;;;;;14.55;1.80;;;;;;;;;;5013847;28;20037;-62
2021/03/11 08:33:35;;;;;;;13.48;1.77;;;;;;;;;;4983253;28;20074;-62
2021/03/11 08:36:01;;;;;;;11.98;1.98;;;;;;;;;;4997572;28;20041;-64
2021/03/11 08:38:40;;;;;;;14.55;1.90;;;;;;;;;;5025319;28;20049;-63
2021/03/11 08:41:06;;;;;;;;;;;;;;;;;;5008029;28;20070;-61
2021/03/11 08:43:53;;;;;;;14.95;1.50;;;;;;;;;;5008758;28;19929;-62
2021/03/11 08:46:21;;;;;;;7.95;0.73;;;;;;;;;;4998533;28;20038;-64
2021/03/11 08:48:49;;;;;;;9.13;1.42;;;;;;;;;;5007945;28;20048;-60
2021/03/11 08:51:34;;;;;;;8.07;1.15;;;;;;;;;;5004750;28;20061;-64
2021/03/11 08:54:00;;;;;;;11.75;1.15;;;;;;;;;;5007744;28;20127;-63
2021/03/11 08:56:39;;;;;;;24.02;2.42;;;;;;;;;;5002829;28;20038;-63
2021/03/11 08:59:06;;;;;;;14.27;1.77;;;;;;;;;;5026945;28;20042;-63
2021/03/11 09:01:37;;;;;;;18.40;1.80;;;;;;;;;;5001617;28;20034;-64
2021/03/11 09:04:04;;;;;;;12.02;1.35;;;;;;;;;;4991912;28;20034;-63
2021/03/11 09:06:49;;;;;;;16.33;1.67;;;;;;;;;;4994817;28;20097;-60
2021/03/11 09:09:15;;;;;;;22.48;2.33;;;;;;;;;;5026389;28;20079;-60
2021/03/11 09:11:52;;;;;;;18.98;2.30;;;;;;;;;;5039392;28;20118;-62
2021/03/11 09:14:20;;;;;;;22.00;2.13;;;;;;;;;;5044180;28;20130;-64
2021/03/11 09:16:47;;;;;;;17.05;2.47;;;;;;;;;;5021739;28;20029;-64
2021/03/11 09:19:14;;;;;;;28.38;2.78;;;;;;;;;;5044911;28;20053;-65
2021/03/11 09:21:40;;;;;;;17.95;2.95;;;;;;;;;;5040789;28;20077;-63
2021/03/11 09:24:15;;;;;;;15.68;3.10;;;;;;;;;;5006380;28;20200;-64
2021/03/11 09:26:41;;;;;;;15.38;2.20;;;;;;;;;;5005733;28;20113;-60
2021/03/11 09:29:11;;;;;;;16.67;2.05;;;;;;;;;;5004770;28;20042;-63
2021/03/11 09:31:38;;;;;;;17.35;2.40;;;;;;;;;;5025050;28;20057;-64
2021/03/11 09:34:05;;;;;;;22.35;2.33;;;;;;;;;;4999917;28;20054;-65
2021/03/11 09:36:31;;;;;;;23.30;2.15;;;;;;;;;;4987670;28;20098;-64
2021/03/11 09:39:03;;;;;;;5.45;1.17;;;;;;;;;;5017037;28;20045;-64
2021/03/11 09:41:31;;;;;;;28.35;2.80;;;;;;;;;;5008475;28;20048;-63
2021/03/11 09:43:57;;;;;;;13.13;1.87;;;;;;;;;;5002081;28;20101;-64
2021/03/11 09:46:24;;;;;;;28.63;2.67;;;;;;;;;;5006537;28;20365;-65
2021/03/11 09:48:51;;;;;;;24.50;2.80;;;;;;;;;;5003697;28;20052;-61
2021/03/11 09:51:19;;;;;;;20.23;1.92;;;;;;;;;;5003219;28;20046;-64
2021/03/11 09:53:47;;;;;;;17.80;2.38;;;;;;;;;;5009652;28;20069;-63
2021/03/11 09:56:15;;;;;;;23.35;2.60;;;;;;;;;;5023698;28;20045;-65
2021/03/11 09:58:45;;;;;;;34.20;3.08;;;;;;;;;;5018467;28;20049;-64
2021/03/11 10:01:11;;;;;;;10.27;1.58;;;;;;;;;;5025228;28;20038;-63
2021/03/11 10:03:37;;;;;;;19.63;3.10;;;;;;;;;;5015121;28;20053;-62
2021/03/11 10:06:04;;;;;;;16.05;2.05;;;;;;;;;;5005413;28;20066;-62
2021/03/11 10:08:34;;;;;;;17.10;2.38;;;;;;;;;;5000055;28;20034;-64
2021/03/11 10:11:08;;;;;;;5.13;1.23;;;;;;;;;;5002069;28;20046;-65
2021/03/11 10:13:47;;;;;;;23.08;4.03;;;;;;;;;;5001532;28;20045;-64
2021/03/11 10:16:13;;;;;;;11.15;1.95;;;;;;;;;;4983992;28;20129;-62
2021/03/11 10:18:58;;;;;;;17.55;2.25;;;;;;;;;;4985128;28;20048;-65
2021/03/11 10:21:24;;;;;;;20.33;3.53;;;;;;;;;;4981790;28;20026;-64
2021/03/11 10:23:51;;;;;;;15.23;1.90;;;;;;;;;;4985398;28;20057;-64
2021/03/11 10:26:18;;;;;;;18.58;2.05;;;;;;;;;;5016924;28;20061;-66
2021/03/11 10:28:45;;;;;;;19.10;2.45;;;;;;;;;;5024427;28;20127;-64
2021/03/11 10:31:12;;;;;;;19.02;2.67;;;;;;;;;;5003676;28;20038;-65
2021/03/11 10:33:40;;;;;;;20.73;3.42;;;;;;;;;;5006465;28;20041;-65
2021/03/11 10:36:13;;;;;;;22.77;3.03;;;;;;;;;;5014554;28;20037;-66
2021/03/11 10:38:41;;;;;;;20.40;2.95;;;;;;;;;;5021514;28;20057;-63
2021/03/11 10:41:15;;;;;;;7.85;1.42;;;;;;;;;;5004733;28;20060;-63
2021/03/11 10:43:42;;;;;;;22.23;2.58;;;;;;;;;;5010903;28;20030;-63
2021/03/11 10:46:08;;;;;;;10.55;2.05;;;;;;;;;;5000554;28;20045;-65
2021/03/11 10:48:51;;;;;;;13.68;1.73;;;;;;;;;;5001966;28;20060;-64
2021/03/11 10:51:20;;;;;;;20.30;2.92;;;;;;;;;;4999556;28;20160;-65
2021/03/11 10:53:46;;;;;;;16.92;2.15;;;;;;;;;;5002121;28;20136;-66
2021/03/11 10:56:12;;;;;;;21.15;2.47;;;;;;;;;;5001342;28;20054;-66
2021/03/11 10:58:41;;;;;;;23.90;2.65;;;;;;;;;;5002889;28;20034;-64
2021/03/11 11:01:07;;;;;;;18.25;2.08;;;;;;;;;;5001400;28;20045;-62
2021/03/11 11:03:33;;;;;;;26.35;3.35;;;;;;;;;;5003401;28;20057;-66
2021/03/11 11:05:59;;;;;;;27.55;3.30;;;;;;;;;;5001003;28;20045;-65
2021/03/11 11:08:25;;;;;;;29.13;2.33;;;;;;;;;;5023042;28;20503;-63
2021/03/11 11:10:51;;;;;;;25.45;3.33;;;;;;;;;;5017647;28;20125;-62
2021/03/11 11:13:17;;;;;;;24.67;3.25;;;;;;;;;;5002300;28;20053;-64
2021/03/11 11:15:44;;;;;;;16.23;1.77;;;;;;;;;;5001530;28;20050;-64
2021/03/11 11:18:11;;;;;;;19.48;2.63;;;;;;;;;;4998451;28;20124;-62
2021/03/11 11:20:37;;;;;;;20.00;2.88;;;;;;;;;;5002864;28;20061;-63
2021/03/11 11:23:03;;;;;;;16.80;2.20;;;;;;;;;;4999982;28;20057;-64
2021/03/11 11:25:30;;;;;;;24.08;2.47;;;;;;;;;;5003271;28;20071;-64
2021/03/11 11:27:56;;;;;;;16.05;1.90;;;;;;;;;;5001077;28;20142;-63
2021/03/11 11:30:22;;;;;;;16.20;1.75;;;;;;;;;;5002012;28;20046;-59
2021/03/11 11:32:49;;;;;;;20.48;2.67;;;;;;;;;;5010324;28;20034;-65
2021/03/11 11:35:16;;;;;;;23.45;2.80;;;;;;;;;;5021393;28;20057;-65
2021/03/11 11:37:44;;;;;;;14.77;2.10;;;;;;;;;;5019727;28;20061;-62
2021/03/11 11:40:10;;;;;;;16.42;1.63;;;;;;;;;;5022147;28;20052;-65
2021/03/11 11:42:36;;;;;;;17.15;2.33;;;;;;;;;;5005618;28;20029;-62
2021/03/11 11:45:02;;;;;;;28.13;2.47;;;;;;;;;;4983565;28;20039;-64
2021/03/11 11:47:29;;;;;;;15.25;2.28;;;;;;;;;;4982539;28;20050;-64
2021/03/11 11:49:56;;;;;;;18.48;2.35;;;;;;;;;;5008914;28;20045;-64
2021/03/11 11:52:21;;;;;;;17.35;2.13;;;;;;;;;;5003847;28;20056;-63
2021/03/11 11:54:48;;;;;;;25.50;2.42;;;;;;;;;;5022726;28;20041;-65
2021/03/11 11:57:14;;;;;;;19.05;2.78;;;;;;;;;;5026340;28;20056;-65
2021/03/11 11:59:40;;;;;;;18.42;1.95;;;;;;;;;;5003441;28;20042;-65
2021/03/11 12:02:05;;;;;;;16.15;1.88;;;;;;;;;;4986625;28;20053;-65
2021/03/11 12:04:31;;;;;;;21.92;2.65;;;;;;;;;;4998789;28;20045;-65
2021/03/11 12:06:58;;;;;;;15.98;2.00;;;;;;;;;;5007057;28;20052;-64
2021/03/11 12:09:25;;;;;;;23.20;2.45;;;;;;;;;;5014160;28;20053;-64
2021/03/11 12:11:50;;;;;;;17.63;2.38;;;;;;;;;;5024820;28;20055;-64
2021/03/11 12:14:16;;;;;;;23.77;2.42;;;;;;;;;;5011036;28;20052;-65
2021/03/11 12:16:43;;;;;;;16.65;2.28;;;;;;;;;;5005909;28;20037;-64
2021/03/11 12:19:09;;;;;;;16.77;2.53;;;;;;;;;;5001727;28;20026;-64
2021/03/11 12:21:35;;;;;;;20.10;1.90;;;;;;;;;;5004871;28;20041;-63
2021/03/11 12:24:02;;;;;;;13.20;1.65;;;;;;;;;;5001907;28;20060;-63
2021/03/11 12:26:28;;;;;;;18.60;2.35;;;;;;;;;;5003899;28;20053;-65
2021/03/11 12:28:54;;;;;;;12.55;1.65;;;;;;;;;;5002071;28;20053;-66
2021/03/11 12:31:20;;;;;;;17.92;2.33;;;;;;;;;;5004064;28;20050;-65
2021/03/11 12:33:47;;;;;;;15.23;2.58;;;;;;;;;;5005310;28;20034;-61
2021/03/11 12:36:13;;;;;;;22.95;2.75;;;;;;;;;;5002254;28;20113;-63
2021/03/11 12:38:40;;;;;;;16.40;2.30;;;;;;;;;;5004135;28;20100;-65
2021/03/11 12:41:07;;;;;;;12.00;1.85;;;;;;;;;;5017011;28;20120;-60
2021/03/11 12:43:33;;;;;;;14.43;1.98;;;;;;;;;;5032779;28;20037;-63
2021/03/11 12:45:59;;;;;;;9.00;1.23;;;;;;;;;;5014461;28;20037;-63
2021/03/11 12:48:25;;;;;;;15.75;2.42;;;;;;;;;;5025067;28;20033;-59
2021/03/11 12:50:51;;;;;;;26.27;2.55;;;;;;;;;;5006166;28;20192;-64
2021/03/11 12:53:18;;;;;;;22.00;2.15;;;;;;;;;;5000097;28;20069;-64
2021/03/11 12:55:44;;;;;;;17.10;1.73;;;;;;;;;;5003399;28;20119;-66
2021/03/11 12:58:11;;;;;;;22.15;2.70;;;;;;;;;;5021242;28;20045;-65
2021/03/11 13:00:37;;;;;;;16.75;2.30;;;;;;;;;;5017185;28;20045;-66
2021/03/11 13:03:04;;;;;;;22.85;3.03;;;;;;;;;;5020687;28;20041;-63
2021/03/11 13:05:30;;;;;;;17.10;2.13;;;;;;;;;;5017812;28;20651;-63
2021/03/11 13:07:56;;;;;;;19.77;2.05;;;;;;;;;;5021785;28;20119;-66
2021/03/11 13:10:22;;;;;;;8.38;1.67;;;;;;;;;;5020175;28;20038;-65
2021/03/11 13:12:48;;;;;;;14.45;2.20;;;;;;;;;;5034576;28;20053;-65
2021/03/11 13:15:16;;;;;;;18.20;2.88;;;;;;;;;;5018933;28;20068;-66
2021/03/11 13:17:43;;;;;;;27.08;2.55;;;;;;;;;;5017192;28;20041;-65
2021/03/11 13:20:09;;;;;;;14.73;2.90;;;;;;;;;;5020708;28;20119;-65
2021/03/11 13:22:35;;;;;;;19.27;1.95;;;;;;;;;;5003177;28;20042;-66
2021/03/11 13:25:01;;;;;;;15.90;1.88;;;;;;;;;;4992041;28;20083;-65
2021/03/11 13:27:27;;;;;;;12.95;1.50;;;;;;;;;;5008254;28;20060;-66
2021/03/11 13:29:53;;;;;;;12.73;1.60;;;;;;;;;;5019917;28;20113;-64
2021/03/11 13:32:20;;;;;;;20.83;2.25;;;;;;;;;;5009623;28;20054;-65
2021/03/11 13:34:46;;;;;;;19.33;1.85;;;;;;;;;;5003346;28;20042;-64
2021/03/11 13:37:12;;;;;;;17.02;1.77;;;;;;;;;;5003981;28;20146;-65
2021/03/11 13:39:38;;;;;;;19.33;1.88;;;;;;;;;;5004901;28;20057;-66
2021/03/11 13:42:05;;;;;;;19.85;2.55;;;;;;;;;;5002351;28;20038;-64
2021/03/11 13:44:31;;;;;;;13.07;1.73;;;;;;;;;;5004914;28;20035;-65
2021/03/11 13:46:57;;;;;;;9.32;1.40;;;;;;;;;;4999724;28;20050;-62
2021/03/11 13:49:24;;;;;;;12.07;1.50;;;;;;;;;;5004952;28;20034;-65
2021/03/11 13:51:50;;;;;;;13.13;2.08;;;;;;;;;;5000594;28;20061;-64
2021/03/11 13:54:16;;;;;;;15.57;3.00;;;;;;;;;;4999415;28;20086;-66
2021/03/11 13:56:42;;;;;;;14.23;2.13;;;;;;;;;;5003189;28;20075;-64
2021/03/11 13:59:08;;;;;;;13.95;1.73;;;;;;;;;;4997399;28;20034;-66
2021/03/11 14:01:35;;;;;;;11.07;1.60;;;;;;;;;;5002403;28;20057;-61
2021/03/11 14:04:01;;;;;;;3.88;0.40;;;;;;;;;;5012541;28;20041;-64
2021/03/11 14:06:28;;;;;;;7.50;1.10;;;;;;;;;;5022872;28;20057;-63
2021/03/11 14:08:54;;;;;;;1.65;0.30;;;;;;;;;;5006299;28;20050;-60
2021/03/11 14:11:20;;;;;;;4.18;0.70;;;;;;;;;;5000941;28;20050;-63
2021/03/11 14:13:46;;;;;;;1.10;0.32;;;;;;;;;;4997620;28;20056;-62
2021/03/11 14:16:12;;;;;;;4.22;0.68;;;;;;;;;;5001180;28;20038;-63
2021/03/11 14:18:39;;;;;;;0.80;0.30;;;;;;;;;;4999024;28;20123;-60
2021/03/11 14:21:05;;;;;;;0.47;0.28;;;;;;;;;;5000184;28;20142;-61
2021/03/11 14:23:32;;;;;;;3.88;0.60;;;;;;;;;;4997153;28;20034;-65
2021/03/11 14:25:58;;;;;;;1.55;0.45;;;;;;;;;;5001270;28;20042;-63
2021/03/11 14:28:24;;;;;;;0.90;0.30;;;;;;;;;;5001370;28;20127;-66
2021/03/11 14:30:50;;;;;;;2.92;0.50;;;;;;;;;;4997713;28;20057;-66
2021/03/11 14:33:16;;;;;;;3.80;0.68;;;;;;;;;;5000734;28;20042;-66
2021/03/11 14:35:42;;;;;;;6.25;0.95;;;;;;;;;;4997677;28;20042;-66